Time;durP1;ratioP1;P1;durP2;ratioP2;P2;SDS_P1;SDS_P2;PMS_P1;PMS_P2;Temp;Humidity;BMP_temperature;BMP_pressure;BME280_temperature;BME280_humidity;BME280_pressure;Samples;Min_cycle;Max_cycle;Signal;HPM_P1;HPM_P2
2023/04/13 00:00:12;;;;;;;;;;;;;;;9.83;69.84;91577.25;2057354;69;20190;-75
2023/04/13 00:06:09;;;;;;;;;;;;;;;9.90;70.20;91578.28;2057539;69;20225;-76
2023/04/13 00:12:03;;;;;;;;;;;;;;;9.90;70.34;91595.84;2057705;69;20445;-76
2023/04/13 00:14:32;;;;;;;;;;;;;;;9.83;70.61;91580.06;2057523;69;20459;-76
2023/04/13 00:16:58;;;;;;;;;;;;;;;9.73;70.58;91584.50;2058236;69;20058;-76
2023/04/13 00:22:53;;;;;;;;;;;;;;;9.76;70.74;91583.97;2058388;69;20062;-76
2023/04/13 00:25:19;;;;;;;;;;;;;;;9.47;71.80;91589.63;2057997;69;20563;-76
2023/04/13 00:31:12;;;;;;;;;;;;;;;9.83;70.74;91580.06;2057940;69;20049;-76
2023/04/13 00:37:06;;;;;;;;;;;;;;;9.65;70.93;91577.16;2058938;69;20120;-75
2023/04/13 00:43:06;;;;;;;;;;;;;;;9.76;70.75;91569.16;2049956;69;20125;-76
2023/04/13 00:45:37;;;;;;;;;;;;;;;9.74;71.37;91574.72;2055246;69;20058;-75
2023/04/13 00:48:04;;;;;;;;;;;;;;;9.62;71.67;91572.81;2058657;69;20050;-75
2023/04/13 00:50:29;;;;;;;;;;;;;;;9.01;74.09;91566.41;2055100;69;20369;-75
2023/04/13 00:52:58;;;;;;;;;;;;;;;9.36;73.18;91563.88;2058733;69;20506;-76
2023/04/13 00:55:24;;;;;;;;;;;;;;;9.43;73.15;91576.09;2055195;69;20558;-75
2023/04/13 00:57:51;;;;;;;;;;;;;;;9.57;71.62;91579.56;2058626;69;20150;-76
2023/04/13 01:00:17;;;;;;;;;;;;;;;9.56;70.96;91569.69;2058108;69;20050;-76
2023/04/13 01:02:43;;;;;;;;;;;;;;;9.54;71.55;91571.69;2058365;69;20148;-76
2023/04/13 01:05:13;;;;;;;;;;;;;;;9.54;71.42;91566.09;2058394;69;20047;-75
2023/04/13 01:07:48;;;;;;;;;;;;;;;9.63;70.77;91562.28;2058621;69;20473;-75
2023/04/13 01:13:47;;;;;;;;;;;;;;;9.54;71.05;91566.81;2058623;69;20057;-77
2023/04/13 01:16:18;;;;;;;;;;;;;;;9.21;71.30;91569.44;2055110;69;20505;-77
2023/04/13 01:18:48;;;;;;;;;;;;;;;9.24;70.99;91574.53;2055277;69;20061;-77
2023/04/13 01:21:18;;;;;;;;;;;;;;;9.49;69.53;91575.69;2058526;69;20173;-76
2023/04/13 01:27:15;;;;;;;;;;;;;;;8.62;73.61;91586.97;2058168;69;20057;-77
2023/04/13 01:29:44;;;;;;;;;;;;;;;9.10;72.10;91590.69;2058477;69;20065;-76
2023/04/13 01:32:15;;;;;;;;;;;;;;;9.29;70.75;91597.91;2054939;69;20046;-76
2023/04/13 01:34:41;;;;;;;;;;;;;;;9.33;70.24;91587.59;2054986;69;20089;-76
2023/04/13 01:37:08;;;;;;;;;;;;;;;9.31;70.09;91587.50;2058597;69;20058;-77
2023/04/13 01:39:38;;;;;;;;;;;;;;;9.06;70.62;91587.69;2057926;69;20074;-76
2023/04/13 01:42:17;;;;;;;;;;;;;;;8.80;72.41;91601.91;2054396;69;20058;-76
2023/04/13 01:44:44;;;;;;;;;;;;;;;9.06;71.16;91596.13;2051868;69;20073;-76
2023/04/13 01:50:51;;;;;;;;;;;;;;;9.13;71.07;91615.44;2058192;69;20085;-77
2023/04/13 01:53:29;;;;;;;;;;;;;;;9.15;70.17;91632.38;2054857;69;20081;-76
2023/04/13 01:55:55;;;;;;;;;;;;;;;9.09;70.08;91631.38;2058277;69;20049;-76
2023/04/13 02:01:50;;;;;;;;;;;;;;;9.04;70.08;91636.06;2057951;69;20057;-76
2023/04/13 02:04:16;;;;;;;;;;;;;;;9.11;68.32;91637.78;2058101;69;20116;-75
2023/04/13 02:06:43;;;;;;;;;;;;;;;8.86;69.55;91637.94;2058081;69;20414;-76
2023/04/13 02:09:09;;;;;;;;;;;;;;;8.93;69.29;91638.97;2054810;69;20054;-76
2023/04/13 02:11:36;;;;;;;;;;;;;;;8.89;69.00;91642.31;2058078;69;20061;-76
2023/04/13 02:14:03;;;;;;;;;;;;;;;8.87;68.14;91636.59;2054865;69;20061;-76
2023/04/13 02:16:29;;;;;;;;;;;;;;;8.30;70.38;91640.03;2054575;69;20054;-75
2023/04/13 02:18:58;;;;;;;;;;;;;;;8.69;69.13;91628.00;2057922;69;20050;-76
2023/04/13 02:21:25;;;;;;;;;;;;;;;8.59;69.33;91627.47;2054207;69;20073;-76
2023/04/13 02:23:53;;;;;;;;;;;;;;;8.52;69.62;91620.84;2054717;69;20120;-75
2023/04/13 02:26:22;;;;;;;;;;;;;;;8.63;68.88;91622.81;2054761;69;20141;-76
2023/04/13 02:28:48;;;;;;;;;;;;;;;8.65;68.91;91624.97;2057981;69;20070;-76
2023/04/13 02:31:15;;;;;;;;;;;;;;;8.59;69.09;91633.09;2054815;69;20050;-75
2023/04/13 02:33:43;;;;;;;;;;;;;;;8.28;70.29;91639.19;2054694;69;20556;-77
2023/04/13 02:36:09;;;;;;;;;;;;;;;8.36;69.61;91639.63;2057768;69;20058;-77
2023/04/13 02:38:37;;;;;;;;;;;;;;;8.48;69.44;91629.06;2054537;69;20503;-75
2023/04/13 02:44:44;;;;;;;;;;;;;;;8.29;69.72;91647.00;2050107;69;20433;-75
2023/04/13 02:47:11;;;;;;;;;;;;;;;8.33;69.39;91638.78;2054737;69;20046;-75
2023/04/13 02:49:39;;;;;;;;;;;;;;;8.36;69.18;91645.22;2057812;69;20089;-75
2023/04/13 02:52:14;;;;;;;;;;;;;;;8.44;68.15;91648.47;2054331;69;20502;-76
2023/04/13 02:54:55;;;;;;;;;;;;;;;8.38;68.93;91662.91;2054734;69;20090;-77
2023/04/13 02:57:29;;;;;;;;;;;;;;;8.26;68.91;91658.72;2052153;69;20054;-76
2023/04/13 02:59:59;;;;;;;;;;;;;;;8.42;68.17;91656.06;2051967;69;20061;-75
2023/04/13 03:02:41;;;;;;;;;;;;;;;8.30;68.92;91656.84;2054628;69;20065;-75
2023/04/13 03:05:08;;;;;;;;;;;;;;;8.30;69.05;91662.47;2057900;69;20556;-75
2023/04/13 03:07:36;;;;;;;;;;;;;;;8.30;68.72;91653.31;2054577;69;20117;-75
2023/04/13 03:10:03;;;;;;;;;;;;;;;8.22;69.44;91647.28;2054342;69;20054;-75
2023/04/13 03:12:30;;;;;;;;;;;;;;;8.29;68.85;91649.03;2054507;69;20058;-75
2023/04/13 03:18:26;;;;;;;;;;;;;;;8.21;69.20;91657.06;2058286;69;20147;-75
2023/04/13 03:20:53;;;;;;;;;;;;;;;8.04;70.25;91667.41;2057695;69;20050;-76
2023/04/13 03:26:49;;;;;;;;;;;;;;;8.11;69.77;91669.19;2054915;64;20249;-75
2023/04/13 03:29:24;;;;;;;;;;;;;;;8.10;69.97;91664.19;2049689;69;20044;-75
2023/04/13 03:31:51;;;;;;;;;;;;;;;8.09;69.95;91673.94;2039118;70;20071;-74
2023/04/13 03:34:17;;;;;;;;;;;;;;;7.99;69.44;91670.63;2038968;69;20407;-75
2023/04/13 03:36:46;;;;;;;;;;;;;;;8.15;68.48;91668.66;2051842;69;20063;-75
2023/04/13 03:39:12;;;;;;;;;;;;;;;8.08;69.59;91673.22;2051731;70;20048;-74
2023/04/13 03:41:38;;;;;;;;;;;;;;;8.03;68.82;91677.16;2051820;70;20044;-75
2023/04/13 03:44:07;;;;;;;;;;;;;;;8.04;68.80;91677.88;2038887;69;20051;-76
2023/04/13 03:46:36;;;;;;;;;;;;;;;7.98;68.33;91675.50;2051568;69;20047;-76
2023/04/13 03:49:09;;;;;;;;;;;;;;;7.99;67.27;91679.75;2051434;69;20408;-77
2023/04/13 03:51:35;;;;;;;;;;;;;;;8.09;67.54;91665.53;2051505;69;20059;-77
2023/04/13 03:54:01;;;;;;;;;;;;;;;8.08;66.27;91662.00;2038629;70;20071;-77
2023/04/13 03:56:27;;;;;;;;;;;;;;;7.99;67.14;91665.00;2051366;70;20044;-77
2023/04/13 03:58:53;;;;;;;;;;;;;;;8.03;66.73;91662.41;2051329;69;20067;-76
2023/04/13 04:01:23;;;;;;;;;;;;;;;8.06;65.64;91653.50;2051376;70;20064;-76
2023/04/13 04:03:49;;;;;;;;;;;;;;;7.96;66.29;91660.63;2051321;70;20054;-76
2023/04/13 04:06:16;;;;;;;;;;;;;;;7.91;66.47;91659.69;2051431;70;20175;-77
2023/04/13 04:08:50;;;;;;;;;;;;;;;7.86;67.51;91658.75;2051401;69;20063;-76
2023/04/13 04:14:57;;;;;;;;;;;;;;;7.66;68.84;91663.25;2038592;70;20503;-77
2023/04/13 04:17:26;;;;;;;;;;;;;;;7.72;68.98;91660.06;2051354;70;20052;-76
2023/04/13 04:19:52;;;;;;;;;;;;;;;7.72;69.21;91660.06;2051340;69;20068;-76
2023/04/13 04:22:28;;;;;;;;;;;;;;;7.69;69.63;91662.00;2051259;70;20099;-75
2023/04/13 04:24:59;;;;;;;;;;;;;;;7.66;69.67;91668.88;2051250;70;20060;-76
2023/04/13 04:27:27;;;;;;;;;;;;;;;7.57;69.85;91672.56;2054413;69;20097;-75
2023/04/13 04:33:33;;;;;;;;;;;;;;;7.68;69.26;91674.56;2058207;69;20117;-77
2023/04/13 04:36:00;;;;;;;;;;;;;;;7.63;69.62;91676.41;2054460;69;20101;-76
2023/04/13 04:38:34;;;;;;;;;;;;;;;7.59;69.60;91673.38;2054741;69;20469;-75
2023/04/13 04:41:04;;;;;;;;;;;;;;;7.53;69.96;91675.88;2054691;69;20144;-75
2023/04/13 04:43:31;;;;;;;;;;;;;;;7.52;70.27;91677.22;2054414;69;20172;-76
2023/04/13 04:45:56;;;;;;;;;;;;;;;7.48;70.35;91684.66;2054590;69;20502;-76
2023/04/13 04:48:25;;;;;;;;;;;;;;;7.56;70.23;91694.25;2058141;69;20060;-75
2023/04/13 04:50:55;;;;;;;;;;;;;;;7.54;70.17;91701.78;2054388;69;20125;-74
2023/04/13 04:53:21;;;;;;;;;;;;;;;7.54;70.05;91710.19;2054492;69;20517;-75
2023/04/13 04:55:46;;;;;;;;;;;;;;;7.62;68.96;91707.84;2054469;69;20074;-76
2023/04/13 04:58:26;;;;;;;;;;;;;;;7.54;69.94;91708.13;2054539;69;20553;-75
2023/04/13 05:00:55;;;;;;;;;;;;;;;7.57;69.14;91708.97;2054494;69;20112;-76
2023/04/13 05:03:21;;;;;;;;;;;;;;;7.51;70.01;91709.34;2058615;69;20056;-76
2023/04/13 05:05:53;;;;;;;;;;;;;;;7.38;70.72;91710.03;2054848;69;20042;-75
2023/04/13 05:08:27;;;;;;;;;;;;;;;7.30;71.32;91707.50;2054955;69;20051;-76
2023/04/13 05:10:53;;;;;;;;;;;;;;;7.47;70.49;91711.19;2052058;69;20633;-76
2023/04/13 05:13:19;;;;;;;;;;;;;;;7.39;70.95;91706.59;2055053;69;20144;-75
2023/04/13 05:15:56;;;;;;;;;;;;;;;7.43;71.34;91716.59;2055326;69;20153;-75
2023/04/13 05:18:22;;;;;;;;;;;;;;;7.49;71.06;91711.31;2058685;69;20546;-76
2023/04/13 05:20:47;;;;;;;;;;;;;;;7.54;70.90;91713.72;2054699;69;20057;-75
2023/04/13 05:26:42;;;;;;;;;;;;;;;7.16;70.85;91733.94;2055801;69;20053;-76
2023/04/13 05:29:09;;;;;;;;;;;;;;;6.95;71.97;91735.56;2051619;70;20437;-76
2023/04/13 05:31:38;;;;;;;;;;;;;;;7.25;71.75;91741.47;2051547;70;20518;-75
2023/04/13 05:34:04;;;;;;;;;;;;;;;7.44;71.49;91748.84;2038908;70;20052;-75
2023/04/13 05:36:31;;;;;;;;;;;;;;;7.36;71.03;91737.91;2051729;70;20063;-76
2023/04/13 05:39:00;;;;;;;;;;;;;;;7.33;70.82;91755.91;2049174;70;20400;-77
2023/04/13 05:41:27;;;;;;;;;;;;;;;7.51;70.38;91762.56;2052327;70;20044;-74
2023/04/13 05:43:52;;;;;;;;;;;;;;;7.57;70.29;91756.59;2038920;70;20052;-75
2023/04/13 05:46:19;;;;;;;;;;;;;;;7.24;72.08;91754.00;2051481;70;20059;-75
2023/04/13 05:48:45;;;;;;;;;;;;;;;7.31;72.03;91747.41;2051714;69;20138;-76
2023/04/13 05:51:12;;;;;;;;;;;;;;;7.64;70.27;91750.69;2049032;69;20072;-75
2023/04/13 05:57:06;;;;;;;;;;;;;;;7.80;69.73;91756.47;2039921;70;20235;-74
2023/04/13 05:59:34;;;;;;;;;;;;;;;7.65;69.95;91748.63;2053696;69;20056;-74
2023/04/13 06:02:01;;;;;;;;;;;;;;;7.76;69.73;91750.66;2052973;69;20063;-74
2023/04/13 06:04:27;;;;;;;;;;;;;;;7.75;70.15;91749.19;2039325;70;20158;-76
2023/04/13 06:06:54;;;;;;;;;;;;;;;7.87;70.54;91757.53;2051941;70;20076;-77
2023/04/13 06:09:20;;;;;;;;;;;;;;;7.95;71.13;91749.59;2051789;70;20059;-76
2023/04/13 06:11:45;;;;;;;;;;;;;;;8.13;69.28;91759.00;2038990;70;20076;-75
2023/04/13 06:14:11;;;;;;;;;;;;;;;8.09;69.97;91767.16;2038833;70;20604;-76
2023/04/13 06:20:09;;;;;;;;;;;;;;;7.59;69.55;91782.63;2038895;70;20052;-76
2023/04/13 06:22:35;;;;;;;;;;;;;;;7.04;69.82;91787.13;2051629;70;20059;-76
2023/04/13 06:25:01;;;;;;;;;;;;;;;6.90;71.45;91795.41;2038588;70;20056;-75
2023/04/13 06:27:32;;;;;;;;;;;;;;;7.58;69.60;91800.03;2051474;70;20059;-76
2023/04/13 06:29:58;;;;;;;;;;;;;;;6.92;70.63;91800.41;2051523;70;20063;-77
2023/04/13 06:32:24;;;;;;;;;;;;;;;6.63;71.81;91807.09;2038824;70;20051;-76
2023/04/13 06:34:49;;;;;;;;;;;;;;;6.83;71.44;91802.75;2039007;70;20052;-76
2023/04/13 06:37:18;;;;;;;;;;;;;;;7.46;69.98;91802.88;2051607;70;20076;-76
2023/04/13 06:39:46;;;;;;;;;;;;;;;7.87;69.80;91810.78;2038815;70;20059;-74
2023/04/13 06:42:14;;;;;;;;;;;;;;;8.10;68.75;91809.94;2051569;70;20087;-76
2023/04/13 06:48:26;;;;;;;;;;;;;;;8.17;68.89;91820.16;2038895;70;20173;-76
2023/04/13 06:50:58;;;;;;;;;;;;;;;8.34;68.39;91807.78;2051676;69;20559;-75
2023/04/13 06:53:24;;;;;;;;;;;;;;;8.42;66.14;91807.50;2051635;70;20048;-76
2023/04/13 06:55:50;;;;;;;;;;;;;;;8.56;66.52;91806.16;2051585;69;20055;-76
2023/04/13 06:58:16;;;;;;;;;;;;;;;8.00;64.67;91803.78;2051616;70;20047;-77
2023/04/13 07:00:41;;;;;;;;;;;;;;;8.25;65.55;91809.41;2038029;70;20099;-76
2023/04/13 07:03:07;;;;;;;;;;;;;;;8.73;65.30;91798.63;2038764;70;20480;-76
2023/04/13 07:05:35;;;;;;;;;;;;;;;8.75;64.08;91793.13;2048878;70;20044;-77
2023/04/13 07:08:05;;;;;;;;;;;;;;;8.80;64.31;91792.72;2051432;70;20148;-77
2023/04/13 07:10:36;;;;;;;;;;;;;;;9.04;63.60;91796.06;2051659;69;20134;-77
2023/04/13 07:13:02;;;;;;;;;;;;;;;8.85;66.32;91794.38;2051617;70;20094;-76
2023/04/13 07:15:29;;;;;;;;;;;;;;;7.90;66.76;91792.75;2051449;70;20076;-77
2023/04/13 07:17:55;;;;;;;;;;;;;;;8.07;66.33;91797.91;2051465;70;20392;-76
2023/04/13 07:20:21;;;;;;;;;;;;;;;8.38;66.29;91793.97;2051433;70;20048;-77
2023/04/13 07:22:46;;;;;;;;;;;;;;;8.87;66.20;91799.38;2038747;70;20056;-76
2023/04/13 07:25:12;;;;;;;;;;;;;;;7.93;65.88;91802.72;2051458;70;20064;-77
2023/04/13 07:27:37;;;;;;;;;;;;;;;8.53;66.26;91818.66;2051695;69;20137;-77
2023/04/13 07:30:03;;;;;;;;;;;;;;;8.12;63.49;91816.41;2054344;69;20057;-76
2023/04/13 07:32:35;;;;;;;;;;;;;;;7.81;66.12;91824.47;2054707;69;20053;-75
2023/04/13 07:35:00;;;;;;;;;;;;;;;8.27;65.56;91831.22;2058269;69;20054;-76
2023/04/13 07:37:28;;;;;;;;;;;;;;;8.77;64.21;91843.75;2054771;69;20049;-77
2023/04/13 07:39:54;;;;;;;;;;;;;;;8.57;63.28;91837.78;2058316;69;20046;-76
2023/04/13 07:42:23;;;;;;;;;;;;;;;7.68;67.63;91845.44;2058322;69;20066;-75
2023/04/13 07:44:56;;;;;;;;;;;;;;;7.88;66.37;91843.81;2051885;69;20394;-75
2023/04/13 07:47:24;;;;;;;;;;;;;;;7.61;67.93;91840.84;2054657;69;20509;-76
2023/04/13 07:49:54;;;;;;;;;;;;;;;8.31;65.75;91837.03;2054648;69;20129;-76
2023/04/13 07:52:21;;;;;;;;;;;;;;;7.95;67.43;91844.88;2054659;69;20046;-76
2023/04/13 07:54:49;;;;;;;;;;;;;;;8.76;64.56;91825.47;2054338;69;20140;-76
2023/04/13 07:57:18;;;;;;;;;;;;;;;8.24;65.71;91815.59;2054610;69;20102;-76
2023/04/13 07:59:48;;;;;;;;;;;;;;;8.52;63.67;91808.03;2054721;69;20140;-78
2023/04/13 08:02:15;;;;;;;;;;;;;;;8.71;64.26;91802.06;2058298;69;20208;-76
2023/04/13 08:04:43;;;;;;;;;;;;;;;7.90;65.53;91799.06;2054648;69;20141;-77
2023/04/13 08:07:10;;;;;;;;;;;;;;;8.42;64.38;91793.47;2054802;69;20065;-75
2023/04/13 08:13:04;;;;;;;;;;;;;;;9.53;61.22;91790.13;2059173;69;20143;-75
2023/04/13 08:15:29;;;;;;;;;;;;;;;9.48;60.93;91787.72;2058999;69;20068;-75
2023/04/13 08:17:56;;;;;;;;;;;;;;;8.71;62.81;91773.28;2054413;69;20090;-77
2023/04/13 08:20:22;;;;;;;;;;;;;;;8.43;62.39;91775.28;2054611;69;20089;-75
2023/04/13 08:22:53;;;;;;;;;;;;;;;8.31;63.13;91781.69;2054527;69;20046;-76
2023/04/13 08:25:20;;;;;;;;;;;;;;;9.17;60.59;91783.38;2058107;69;20053;-77
2023/04/13 08:27:45;;;;;;;;;;;;;;;9.34;59.92;91791.25;2044931;69;20045;-75
2023/04/13 08:30:13;;;;;;;;;;;;;;;9.33;59.69;91781.38;2031912;70;20167;-75
2023/04/13 08:32:53;;;;;;;;;;;;;;;9.19;60.65;91780.66;2032032;70;20401;-75
2023/04/13 08:35:19;;;;;;;;;;;;;;;8.36;63.40;91791.03;2031704;70;20092;-77
2023/04/13 08:37:45;;;;;;;;;;;;;;;8.66;61.29;91797.59;2032419;70;20432;-76
2023/04/13 08:40:13;;;;;;;;;;;;;;;8.98;61.09;91804.19;2032392;70;20068;-77
2023/04/13 08:42:42;;;;;;;;;;;;;;;9.12;61.75;91810.53;2032581;70;20068;-77
2023/04/13 08:48:40;;;;;;;;;;;;;;;9.32;62.25;91816.44;2035931;70;20047;-77
2023/04/13 08:51:07;;;;;;;;;;;;;;;8.49;62.53;91812.81;2029866;70;20049;-76
2023/04/13 08:53:34;;;;;;;;;;;;;;;8.43;62.91;91808.94;2032604;70;20151;-75
2023/04/13 08:56:00;;;;;;;;;;;;;;;7.69;63.74;91810.47;2032524;70;20147;-76
2023/04/13 08:58:27;;;;;;;;;;;;;;;8.06;63.02;91812.53;2032388;70;20061;-77
2023/04/13 09:00:53;;;;;;;;;;;;;;;8.04;63.64;91804.75;2035612;70;20148;-77
2023/04/13 09:03:22;;;;;;;;;;;;;;;7.88;63.34;91803.84;2032532;70;20048;-76
2023/04/13 09:06:02;;;;;;;;;;;;;;;8.56;61.56;91799.84;2032493;70;20542;-76
2023/04/13 09:08:34;;;;;;;;;;;;;;;7.72;64.71;91794.53;2032493;70;20520;-76
2023/04/13 09:11:01;;;;;;;;;;;;;;;8.32;63.40;91802.75;2032502;70;20049;-77
2023/04/13 09:13:27;;;;;;;;;;;;;;;7.97;63.68;91797.34;2032493;70;20565;-76
2023/04/13 09:15:53;;;;;;;;;;;;;;;7.77;65.70;91796.22;2032378;70;20076;-77
2023/04/13 09:18:24;;;;;;;;;;;;;;;7.35;65.62;91789.63;2032444;70;20064;-76
2023/04/13 09:20:57;;;;;;;;;;;;;;;8.08;63.89;91788.16;2032413;70;20488;-75
2023/04/13 09:23:23;;;;;;;;;;;;;;;8.02;63.59;91787.81;2035593;70;20068;-75
2023/04/13 09:25:49;;;;;;;;;;;;;;;8.02;63.79;91782.22;2035629;70;20068;-76
2023/04/13 09:28:16;;;;;;;;;;;;;;;7.37;64.89;91775.75;2035665;70;20088;-76
2023/04/13 09:34:09;;;;;;;;;;;;;;;8.43;62.16;91773.25;2035837;70;20087;-75
2023/04/13 09:36:35;;;;;;;;;;;;;;;8.96;61.56;91776.00;2032453;70;20508;-76
2023/04/13 09:39:01;;;;;;;;;;;;;;;7.96;61.67;91775.53;2035738;70;20096;-76
2023/04/13 09:41:33;;;;;;;;;;;;;;;9.08;58.94;91775.91;2035568;70;20048;-77
2023/04/13 09:44:13;;;;;;;;;;;;;;;9.84;55.72;91772.66;2032473;70;20060;-77
2023/04/13 09:46:38;;;;;;;;;;;;;;;9.98;53.21;91774.69;2032319;70;20052;-76
2023/04/13 09:52:32;;;;;;;;;;;;;;;10.68;53.80;91773.78;2035707;70;20229;-77
2023/04/13 09:54:57;;;;;;;;;;;;;;;10.16;51.16;91761.50;2035595;70;20156;-76
2023/04/13 09:57:30;;;;;;;;;;;;;;;9.69;50.06;91764.88;2035653;70;20048;-74
2023/04/13 10:00:06;;;;;;;;;;;;;;;10.00;48.41;91757.94;2036093;70;20444;-74
2023/04/13 10:02:40;;;;;;;;;;;;;;;9.86;47.78;91757.97;2035811;70;20160;-75
2023/04/13 10:05:08;;;;;;;;;;;;;;;10.36;47.91;91762.50;2032588;70;20155;-75
2023/04/13 10:07:35;;;;;;;;;;;;;;;10.41;45.94;91764.13;2035664;70;20476;-75
2023/04/13 10:10:01;;;;;;;;;;;;;;;10.70;48.20;91759.78;2035525;70;20059;-75
2023/04/13 10:12:28;;;;;;;;;;;;;;;10.62;52.79;91760.13;2035735;70;20057;-75
2023/04/13 10:18:22;;;;;;;;;;;;;;;10.19;52.57;91749.72;2035501;70;20087;-75
2023/04/13 10:24:18;;;;;;;;;;;;;;;9.11;53.78;91755.72;2035520;70;20200;-75
2023/04/13 10:26:43;;;;;;;;;;;;;;;9.13;53.29;91761.44;2035296;70;20099;-75
2023/04/13 10:29:12;;;;;;;;;;;;;;;9.67;53.35;91757.09;2035753;70;20424;-76
2023/04/13 10:35:08;;;;;;;;;;;;;;;9.23;54.58;91760.50;2035507;70;20140;-77
2023/04/13 10:37:34;;;;;;;;;;;;;;;9.11;55.79;91763.41;2029472;70;20147;-76
2023/04/13 10:40:04;;;;;;;;;;;;;;;9.00;55.06;91756.56;2035395;69;20051;-75
2023/04/13 10:42:43;;;;;;;;;;;;;;;9.29;53.13;91752.38;2035490;70;20045;-75
2023/04/13 10:45:20;;;;;;;;;;;;;;;9.45;54.17;91749.66;2035340;70;20049;-76
2023/04/13 10:47:46;;;;;;;;;;;;;;;9.73;53.05;91756.66;2035433;70;20088;-75
2023/04/13 10:50:18;;;;;;;;;;;;;;;9.05;53.52;91757.50;2035326;70;20152;-76
2023/04/13 10:52:56;;;;;;;;;;;;;;;7.92;57.05;91755.69;2035533;70;20045;-75
2023/04/13 10:55:26;;;;;;;;;;;;;;;8.08;58.16;91762.91;2035446;70;20451;-76
2023/04/13 10:57:53;;;;;;;;;;;;;;;7.94;58.26;91753.00;2029528;70;20055;-76
2023/04/13 11:00:20;;;;;;;;;;;;;;;7.93;57.20;91740.34;2035385;70;20052;-75
2023/04/13 11:02:48;;;;;;;;;;;;;;;8.73;54.66;91739.72;2035421;70;20051;-75
2023/04/13 11:05:15;;;;;;;;;;;;;;;8.68;53.71;91735.97;2035143;70;20143;-76
2023/04/13 11:07:44;;;;;;;;;;;;;;;8.76;52.26;91730.78;2035516;70;20056;-76
2023/04/13 11:10:09;;;;;;;;;;;;;;;9.00;53.65;91733.38;2035482;70;20143;-74
2023/04/13 11:12:35;;;;;;;;;;;;;;;9.15;53.68;91732.72;2035371;70;20457;-76
2023/04/13 11:15:01;;;;;;;;;;;;;;;8.97;51.53;91740.22;2035527;70;20048;-75
2023/04/13 11:20:55;;;;;;;;;;;;;;;8.69;50.33;91733.88;2035430;70;20055;-74
2023/04/13 11:23:22;;;;;;;;;;;;;;;9.38;49.64;91724.06;2032071;70;20056;-75
2023/04/13 11:25:51;;;;;;;;;;;;;;;9.48;48.03;91728.72;2035321;70;20127;-74
2023/04/13 11:28:16;;;;;;;;;;;;;;;8.52;49.78;91721.06;2049848;69;20407;-74
2023/04/13 11:30:42;;;;;;;;;;;;;;;8.86;49.55;91720.06;2058270;69;20696;-75
2023/04/13 11:33:08;;;;;;;;;;;;;;;8.83;48.40;91718.50;2058280;69;20058;-75
2023/04/13 11:35:42;;;;;;;;;;;;;;;8.44;49.53;91734.69;2058301;69;20038;-75
2023/04/13 11:38:16;;;;;;;;;;;;;;;7.54;51.43;91746.59;2058387;69;20054;-75
2023/04/13 11:40:44;;;;;;;;;;;;;;;6.90;54.07;91752.72;2058304;69;20470;-74
2023/04/13 11:43:10;;;;;;;;;;;;;;;7.29;54.19;91748.03;2058370;69;20054;-74
2023/04/13 11:45:37;;;;;;;;;;;;;;;7.19;54.44;91760.69;2058706;69;20057;-75
2023/04/13 11:48:05;;;;;;;;;;;;;;;6.44;55.32;91757.72;2058670;69;20140;-74
2023/04/13 11:50:31;;;;;;;;;;;;;;;6.72;55.47;91763.56;2054878;69;20046;-73
2023/04/13 11:52:56;;;;;;;;;;;;;;;6.58;54.33;91763.44;2053919;69;20498;-74
2023/04/13 11:55:22;;;;;;;;;;;;;;;6.61;55.11;91767.84;2057536;69;20054;-73
2023/04/13 11:57:48;;;;;;;;;;;;;;;6.43;55.13;91761.16;2057877;69;20141;-73
2023/04/13 12:00:17;;;;;;;;;;;;;;;6.74;54.49;91766.50;2054120;69;20150;-74
2023/04/13 12:02:43;;;;;;;;;;;;;;;7.39;54.13;91759.06;2057987;69;20065;-75
2023/04/13 12:05:19;;;;;;;;;;;;;;;7.14;53.55;91760.47;2058287;69;20062;-74
2023/04/13 12:07:45;;;;;;;;;;;;;;;7.09;52.69;91764.38;2058178;69;20086;-73
2023/04/13 12:10:17;;;;;;;;;;;;;;;6.99;54.52;91774.97;2057966;69;20085;-74
2023/04/13 12:12:44;;;;;;;;;;;;;;;7.11;54.10;91794.56;2058382;69;20164;-73
2023/04/13 12:15:09;;;;;;;;;;;;;;;6.63;51.69;91805.03;2058062;69;20067;-72
2023/04/13 12:17:35;;;;;;;;;;;;;;;6.81;51.13;91816.59;2058142;69;20482;-73
2023/04/13 12:20:01;;;;;;;;;;;;;;;6.76;49.66;91826.06;2058216;69;20054;-73
2023/04/13 12:22:45;;;;;;;;;;;;;;;6.99;49.89;91822.53;2054456;69;20057;-73
2023/04/13 12:25:20;;;;;;;;;;;;;;;7.00;50.38;91817.69;2058347;69;20057;-73
2023/04/13 12:27:52;;;;;;;;;;;;;;;6.83;50.21;91813.19;2045250;69;20416;-73
2023/04/13 12:30:19;;;;;;;;;;;;;;;6.82;50.64;91809.66;2036240;70;20061;-75
2023/04/13 12:32:46;;;;;;;;;;;;;;;7.33;49.86;91811.91;2038115;70;20048;-76
2023/04/13 12:35:12;;;;;;;;;;;;;;;7.16;50.89;91809.53;2038777;70;20096;-76
2023/04/13 12:41:08;;;;;;;;;;;;;;;7.35;51.11;91807.16;2036623;70;20388;-78
2023/04/13 12:43:33;;;;;;;;;;;;;;;6.64;52.87;91802.94;2036007;70;20398;-76
2023/04/13 12:45:58;;;;;;;;;;;;;;;7.25;53.01;91803.78;2036125;70;20476;-76
2023/04/13 12:48:24;;;;;;;;;;;;;;;7.70;52.86;91811.94;2035810;70;20059;-76
2023/04/13 12:50:50;;;;;;;;;;;;;;;7.78;52.98;91809.59;2032493;70;20503;-76
2023/04/13 12:53:15;;;;;;;;;;;;;;;7.97;52.96;91810.63;2035578;70;20153;-77
2023/04/13 12:55:42;;;;;;;;;;;;;;;7.93;52.37;91810.41;2032179;70;20052;-76
2023/04/13 12:58:07;;;;;;;;;;;;;;;7.92;52.42;91814.53;2035524;70;20084;-77
2023/04/13 13:00:33;;;;;;;;;;;;;;;7.86;52.19;91809.31;2035392;70;20073;-77
2023/04/13 13:02:59;;;;;;;;;;;;;;;7.46;53.14;91811.28;2032032;70;20056;-77
2023/04/13 13:05:24;;;;;;;;;;;;;;;7.87;52.20;91819.91;2035352;70;20484;-76
2023/04/13 13:07:49;;;;;;;;;;;;;;;7.69;52.88;91821.69;2054542;70;20553;-74
2023/04/13 13:10:16;;;;;;;;;;;;;;;7.60;52.97;91830.97;2054527;70;20093;-77
2023/04/13 13:12:42;;;;;;;;;;;;;;;7.67;53.30;91843.25;2054508;70;20047;-77
2023/04/13 13:15:09;;;;;;;;;;;;;;;7.39;54.23;91831.88;2054302;70;20120;-75
2023/04/13 13:17:38;;;;;;;;;;;;;;;7.28;54.95;91833.34;2054387;70;20090;-78
2023/04/13 13:20:05;;;;;;;;;;;;;;;7.24;55.42;91832.38;2035232;70;20081;-78
2023/04/13 13:22:31;;;;;;;;;;;;;;;7.27;55.49;91836.75;2054644;70;20185;-78
2023/04/13 13:24:57;;;;;;;;;;;;;;;7.22;56.37;91837.88;2038640;70;20490;-77
2023/04/13 13:27:22;;;;;;;;;;;;;;;7.21;56.77;91825.22;2048579;69;20072;-77
2023/04/13 13:29:47;;;;;;;;;;;;;;;7.11;57.47;91814.16;2039521;70;20552;-75
2023/04/13 13:32:13;;;;;;;;;;;;;;;7.08;57.55;91818.88;2040771;70;20118;-75
2023/04/13 13:34:38;;;;;;;;;;;;;;;6.85;58.10;91822.44;2039756;70;20416;-77
2023/04/13 13:37:04;;;;;;;;;;;;;;;6.85;57.86;91813.31;2039193;70;20075;-73
2023/04/13 13:39:31;;;;;;;;;;;;;;;7.07;58.30;91820.22;2039079;70;20048;-75
2023/04/13 13:41:57;;;;;;;;;;;;;;;7.02;58.83;91809.41;2051692;70;20048;-74
2023/04/13 13:44:22;;;;;;;;;;;;;;;7.03;58.83;91808.78;2039014;70;20107;-76
2023/04/13 13:46:48;;;;;;;;;;;;;;;6.81;59.82;91818.66;2038699;69;20060;-75
2023/04/13 13:49:17;;;;;;;;;;;;;;;6.74;59.17;91817.56;2051639;70;20494;-77
2023/04/13 13:52:01;;;;;;;;;;;;;;;6.72;59.59;91817.44;2038867;70;20098;-76
2023/04/13 13:54:30;;;;;;;;;;;;;;;6.95;60.04;91822.31;2038409;69;20056;-77
2023/04/13 13:56:56;;;;;;;;;;;;;;;6.90;60.26;91822.69;2051672;70;20425;-78
2023/04/13 13:59:21;;;;;;;;;;;;;;;7.06;60.30;91826.44;2038809;70;20079;-76
2023/04/13 14:01:47;;;;;;;;;;;;;;;7.44;59.38;91830.78;2038886;70;20143;-77
2023/04/13 14:07:42;;;;;;;;;;;;;;;7.77;59.65;91796.94;2039053;70;20083;-76
2023/04/13 14:10:11;;;;;;;;;;;;;;;8.03;58.83;91792.06;2051691;70;20056;-77
2023/04/13 14:12:38;;;;;;;;;;;;;;;7.96;57.74;91767.84;2038858;70;20114;-76
2023/04/13 14:15:04;;;;;;;;;;;;;;;7.11;58.57;91755.38;2038942;69;20118;-76
2023/04/13 14:17:29;;;;;;;;;;;;;;;7.31;57.56;91772.59;2038989;70;20064;-78
2023/04/13 14:19:55;;;;;;;;;;;;;;;7.63;57.47;91788.47;2038887;70;20055;-78
2023/04/13 14:22:20;;;;;;;;;;;;;;;7.97;56.50;91782.59;2038886;70;20489;-78
2023/04/13 14:24:49;;;;;;;;;;;;;;;7.21;57.50;91778.34;2051672;70;20622;-78
2023/04/13 14:27:15;;;;;;;;;;;;;;;8.16;56.37;91768.25;2038766;69;20093;-78
2023/04/13 14:29:41;;;;;;;;;;;;;;;8.03;56.49;91760.53;2038777;70;20151;-77
2023/04/13 14:32:06;;;;;;;;;;;;;;;7.96;56.55;91751.03;2051476;70;20052;-77
2023/04/13 14:34:32;;;;;;;;;;;;;;;7.67;55.30;91748.75;2038629;70;20154;-78
2023/04/13 14:36:57;;;;;;;;;;;;;;;6.94;58.36;91766.97;2051571;70;20055;-77
2023/04/13 14:39:24;;;;;;;;;;;;;;;7.48;57.58;91763.78;2038216;70;20063;-78
2023/04/13 14:41:51;;;;;;;;;;;;;;;7.93;57.03;91757.16;2038699;70;20059;-77